sensor_id;sensor_type;location;lat;lon;timestamp;P1;durP1;ratioP1;P2;durP2;ratioP2
69854;SDS011;57146;48.140;16.304;2023-02-23T00:02:25;15.55;;;6.80;;
69854;SDS011;57146;48.140;16.304;2023-02-23T00:04:52;15.48;;;6.80;;
69854;SDS011;57146;48.140;16.304;2023-02-23T00:07:18;16.02;;;6.68;;
69854;SDS011;57146;48.140;16.304;2023-02-23T00:09:46;15.43;;;6.77;;
69854;SDS011;57146;48.140;16.304;2023-02-23T00:12:12;15.52;;;7.10;;
69854;SDS011;57146;48.140;16.304;2023-02-23T00:14:39;15.35;;;6.70;;
69854;SDS011;57146;48.140;16.304;2023-02-23T00:17:06;15.50;;;6.28;;
69854;SDS011;57146;48.140;16.304;2023-02-23T00:19:33;17.33;;;6.82;;
69854;SDS011;57146;48.140;16.304;2023-02-23T00:22:00;15.97;;;6.87;;
69854;SDS011;57146;48.140;16.304;2023-02-23T00:24:27;18.15;;;7.00;;
69854;SDS011;57146;48.140;16.304;2023-02-23T00:26:54;16.65;;;6.60;;
69854;SDS011;57146;48.140;16.304;2023-02-23T00:29:21;17.20;;;6.88;;
69854;SDS011;57146;48.140;16.304;2023-02-23T00:31:50;14.88;;;6.32;;
69854;SDS011;57146;48.140;16.304;2023-02-23T00:34:18;18.97;;;7.07;;
69854;SDS011;57146;48.140;16.304;2023-02-23T00:36:50;16.50;;;6.82;;
69854;SDS011;57146;48.140;16.304;2023-02-23T00:39:18;17.85;;;7.30;;
69854;SDS011;57146;48.140;16.304;2023-02-23T00:41:46;18.38;;;7.40;;
69854;SDS011;57146;48.140;16.304;2023-02-23T00:44:14;18.90;;;7.40;;
69854;SDS011;57146;48.140;16.304;2023-02-23T00:46:42;18.83;;;7.60;;
69854;SDS011;57146;48.140;16.304;2023-02-23T00:49:11;17.42;;;7.32;;
69854;SDS011;57146;48.140;16.304;2023-02-23T00:51:39;17.45;;;7.18;;
69854;SDS011;57146;48.140;16.304;2023-02-23T00:54:07;17.42;;;7.15;;
69854;SDS011;57146;48.140;16.304;2023-02-23T00:56:37;18.27;;;6.93;;
69854;SDS011;57146;48.140;16.304;2023-02-23T00:59:05;17.23;;;7.07;;
69854;SDS011;57146;48.140;16.304;2023-02-23T01:01:32;17.95;;;6.82;;
69854;SDS011;57146;48.140;16.304;2023-02-23T01:04:00;20.33;;;7.20;;
69854;SDS011;57146;48.140;16.304;2023-02-23T01:06:29;16.27;;;7.13;;
69854;SDS011;57146;48.140;16.304;2023-02-23T01:08:56;18.35;;;6.80;;
69854;SDS011;57146;48.140;16.304;2023-02-23T01:11:24;18.17;;;6.80;;
69854;SDS011;57146;48.140;16.304;2023-02-23T01:13:54;17.58;;;6.57;;
69854;SDS011;57146;48.140;16.304;2023-02-23T01:16:24;18.20;;;7.25;;
69854;SDS011;57146;48.140;16.304;2023-02-23T01:18:54;16.70;;;7.18;;
69854;SDS011;57146;48.140;16.304;2023-02-23T01:21:24;18.15;;;7.63;;
69854;SDS011;57146;48.140;16.304;2023-02-23T01:23:59;16.10;;;6.73;;
69854;SDS011;57146;48.140;16.304;2023-02-23T01:26:28;16.58;;;6.93;;
69854;SDS011;57146;48.140;16.304;2023-02-23T01:29:00;17.35;;;7.05;;
69854;SDS011;57146;48.140;16.304;2023-02-23T01:31:29;16.52;;;7.40;;
69854;SDS011;57146;48.140;16.304;2023-02-23T01:33:58;18.17;;;7.25;;
69854;SDS011;57146;48.140;16.304;2023-02-23T01:36:28;15.80;;;6.60;;
69854;SDS011;57146;48.140;16.304;2023-02-23T01:38:59;18.75;;;7.72;;
69854;SDS011;57146;48.140;16.304;2023-02-23T01:41:26;18.73;;;7.45;;
69854;SDS011;57146;48.140;16.304;2023-02-23T01:44:02;18.58;;;7.20;;
69854;SDS011;57146;48.140;16.304;2023-02-23T01:46:35;17.90;;;7.28;;
69854;SDS011;57146;48.140;16.304;2023-02-23T01:49:03;17.73;;;6.90;;
69854;SDS011;57146;48.140;16.304;2023-02-23T01:51:33;18.55;;;7.65;;
69854;SDS011;57146;48.140;16.304;2023-02-23T01:54:07;20.30;;;7.47;;
69854;SDS011;57146;48.140;16.304;2023-02-23T01:56:35;19.15;;;7.20;;
69854;SDS011;57146;48.140;16.304;2023-02-23T01:59:08;18.80;;;7.78;;
69854;SDS011;57146;48.140;16.304;2023-02-23T02:01:39;18.83;;;7.27;;
69854;SDS011;57146;48.140;16.304;2023-02-23T02:04:08;18.42;;;7.60;;
69854;SDS011;57146;48.140;16.304;2023-02-23T02:06:36;18.50;;;7.30;;
69854;SDS011;57146;48.140;16.304;2023-02-23T02:09:09;20.73;;;8.05;;
69854;SDS011;57146;48.140;16.304;2023-02-23T02:11:39;19.85;;;7.88;;
69854;SDS011;57146;48.140;16.304;2023-02-23T02:24:28;18.05;;;7.82;;
69854;SDS011;57146;48.140;16.304;2023-02-23T02:44:37;20.95;;;8.32;;
69854;SDS011;57146;48.140;16.304;2023-02-23T02:47:42;21.75;;;8.27;;
69854;SDS011;57146;48.140;16.304;2023-02-23T02:52:56;20.58;;;8.00;;
69854;SDS011;57146;48.140;16.304;2023-02-23T02:55:29;20.30;;;7.97;;
69854;SDS011;57146;48.140;16.304;2023-02-23T02:58:00;20.83;;;8.07;;
69854;SDS011;57146;48.140;16.304;2023-02-23T03:00:35;19.25;;;8.07;;
69854;SDS011;57146;48.140;16.304;2023-02-23T03:03:05;20.67;;;7.65;;
69854;SDS011;57146;48.140;16.304;2023-02-23T03:05:40;34.65;;;11.48;;
69854;SDS011;57146;48.140;16.304;2023-02-23T03:10:55;67.13;;;19.80;;
69854;SDS011;57146;48.140;16.304;2023-02-23T03:24:39;46.63;;;15.00;;
69854;SDS011;57146;48.140;16.304;2023-02-23T03:27:24;36.50;;;12.45;;
69854;SDS011;57146;48.140;16.304;2023-02-23T03:30:29;30.23;;;9.75;;
69854;SDS011;57146;48.140;16.304;2023-02-23T03:33:47;23.40;;;9.75;;
69854;SDS011;57146;48.140;16.304;2023-02-23T03:36:24;21.13;;;8.37;;
69854;SDS011;57146;48.140;16.304;2023-02-23T03:41:48;21.20;;;8.25;;
69854;SDS011;57146;48.140;16.304;2023-02-23T03:44:21;18.55;;;7.70;;
69854;SDS011;57146;48.140;16.304;2023-02-23T03:46:56;19.65;;;7.50;;
69854;SDS011;57146;48.140;16.304;2023-02-23T03:49:26;18.83;;;7.47;;
69854;SDS011;57146;48.140;16.304;2023-02-23T03:52:04;19.17;;;7.38;;
69854;SDS011;57146;48.140;16.304;2023-02-23T03:54:38;19.80;;;7.90;;
69854;SDS011;57146;48.140;16.304;2023-02-23T03:57:12;18.83;;;7.45;;
69854;SDS011;57146;48.140;16.304;2023-02-23T03:59:47;19.27;;;7.47;;
69854;SDS011;57146;48.140;16.304;2023-02-23T04:02:24;19.13;;;7.40;;
69854;SDS011;57146;48.140;16.304;2023-02-23T04:04:53;19.42;;;7.78;;
69854;SDS011;57146;48.140;16.304;2023-02-23T04:07:25;16.77;;;7.45;;
69854;SDS011;57146;48.140;16.304;2023-02-23T04:09:52;17.77;;;7.20;;
69854;SDS011;57146;48.140;16.304;2023-02-23T04:14:53;20.80;;;7.73;;
69854;SDS011;57146;48.140;16.304;2023-02-23T04:17:27;18.10;;;7.28;;
69854;SDS011;57146;48.140;16.304;2023-02-23T04:20:19;16.65;;;6.82;;
69854;SDS011;57146;48.140;16.304;2023-02-23T04:22:47;17.67;;;7.07;;
69854;SDS011;57146;48.140;16.304;2023-02-23T04:25:14;19.55;;;7.45;;
69854;SDS011;57146;48.140;16.304;2023-02-23T04:27:42;17.73;;;6.90;;
69854;SDS011;57146;48.140;16.304;2023-02-23T04:30:09;18.30;;;7.57;;
69854;SDS011;57146;48.140;16.304;2023-02-23T04:32:37;16.85;;;7.25;;
69854;SDS011;57146;48.140;16.304;2023-02-23T04:35:04;18.38;;;7.28;;
69854;SDS011;57146;48.140;16.304;2023-02-23T04:37:32;19.25;;;7.60;;
69854;SDS011;57146;48.140;16.304;2023-02-23T04:39:59;18.37;;;7.37;;
69854;SDS011;57146;48.140;16.304;2023-02-23T04:42:25;17.40;;;6.82;;
69854;SDS011;57146;48.140;16.304;2023-02-23T04:44:52;18.23;;;7.22;;
69854;SDS011;57146;48.140;16.304;2023-02-23T04:47:19;18.80;;;7.03;;
69854;SDS011;57146;48.140;16.304;2023-02-23T04:49:46;19.48;;;7.03;;
69854;SDS011;57146;48.140;16.304;2023-02-23T04:52:13;18.43;;;6.93;;
69854;SDS011;57146;48.140;16.304;2023-02-23T04:54:40;17.45;;;7.35;;
69854;SDS011;57146;48.140;16.304;2023-02-23T04:57:08;17.30;;;7.25;;
69854;SDS011;57146;48.140;16.304;2023-02-23T04:59:35;19.63;;;7.25;;
69854;SDS011;57146;48.140;16.304;2023-02-23T05:02:04;19.58;;;7.30;;
69854;SDS011;57146;48.140;16.304;2023-02-23T05:04:31;21.20;;;7.63;;
69854;SDS011;57146;48.140;16.304;2023-02-23T05:06:59;19.90;;;7.68;;
69854;SDS011;57146;48.140;16.304;2023-02-23T05:09:28;20.75;;;7.85;;
69854;SDS011;57146;48.140;16.304;2023-02-23T05:11:56;20.55;;;8.02;;
69854;SDS011;57146;48.140;16.304;2023-02-23T05:14:25;19.58;;;8.07;;
69854;SDS011;57146;48.140;16.304;2023-02-23T05:16:52;19.73;;;7.47;;
69854;SDS011;57146;48.140;16.304;2023-02-23T05:19:19;20.90;;;7.55;;
69854;SDS011;57146;48.140;16.304;2023-02-23T05:21:46;21.73;;;7.80;;
69854;SDS011;57146;48.140;16.304;2023-02-23T05:24:13;23.08;;;8.43;;
69854;SDS011;57146;48.140;16.304;2023-02-23T05:26:40;21.83;;;8.48;;
69854;SDS011;57146;48.140;16.304;2023-02-23T05:29:32;22.63;;;8.77;;
69854;SDS011;57146;48.140;16.304;2023-02-23T05:31:59;22.70;;;8.38;;
69854;SDS011;57146;48.140;16.304;2023-02-23T05:34:26;22.63;;;8.90;;
69854;SDS011;57146;48.140;16.304;2023-02-23T05:36:53;20.55;;;8.32;;
69854;SDS011;57146;48.140;16.304;2023-02-23T05:39:21;21.05;;;7.80;;
69854;SDS011;57146;48.140;16.304;2023-02-23T05:42:14;22.40;;;8.33;;
69854;SDS011;57146;48.140;16.304;2023-02-23T05:45:05;21.20;;;8.35;;
69854;SDS011;57146;48.140;16.304;2023-02-23T05:47:37;24.25;;;8.88;;
69854;SDS011;57146;48.140;16.304;2023-02-23T05:50:04;22.48;;;7.80;;
69854;SDS011;57146;48.140;16.304;2023-02-23T05:52:37;20.02;;;7.88;;
69854;SDS011;57146;48.140;16.304;2023-02-23T05:55:05;23.60;;;8.53;;
69854;SDS011;57146;48.140;16.304;2023-02-23T05:57:34;20.95;;;8.20;;
69854;SDS011;57146;48.140;16.304;2023-02-23T06:00:02;25.38;;;9.02;;
69854;SDS011;57146;48.140;16.304;2023-02-23T06:02:56;21.45;;;8.30;;
69854;SDS011;57146;48.140;16.304;2023-02-23T06:05:23;23.58;;;9.27;;
69854;SDS011;57146;48.140;16.304;2023-02-23T06:07:51;23.27;;;9.17;;
69854;SDS011;57146;48.140;16.304;2023-02-23T06:10:18;23.17;;;8.52;;
69854;SDS011;57146;48.140;16.304;2023-02-23T06:12:45;25.23;;;9.20;;
69854;SDS011;57146;48.140;16.304;2023-02-23T06:15:12;22.77;;;8.80;;
69854;SDS011;57146;48.140;16.304;2023-02-23T06:17:39;21.13;;;8.65;;
69854;SDS011;57146;48.140;16.304;2023-02-23T06:20:06;22.67;;;9.17;;
69854;SDS011;57146;48.140;16.304;2023-02-23T06:22:33;23.35;;;8.85;;
69854;SDS011;57146;48.140;16.304;2023-02-23T06:25:00;23.23;;;9.43;;
69854;SDS011;57146;48.140;16.304;2023-02-23T06:27:27;21.85;;;9.50;;
69854;SDS011;57146;48.140;16.304;2023-02-23T06:29:54;26.13;;;10.20;;
69854;SDS011;57146;48.140;16.304;2023-02-23T06:32:21;22.80;;;9.30;;
69854;SDS011;57146;48.140;16.304;2023-02-23T06:34:50;24.00;;;9.98;;
69854;SDS011;57146;48.140;16.304;2023-02-23T06:37:18;26.67;;;9.95;;
69854;SDS011;57146;48.140;16.304;2023-02-23T06:39:46;24.05;;;8.90;;
69854;SDS011;57146;48.140;16.304;2023-02-23T06:42:13;22.50;;;9.32;;
69854;SDS011;57146;48.140;16.304;2023-02-23T06:44:41;28.23;;;8.93;;
69854;SDS011;57146;48.140;16.304;2023-02-23T06:47:08;21.70;;;8.30;;
69854;SDS011;57146;48.140;16.304;2023-02-23T06:50:00;21.58;;;9.20;;
69854;SDS011;57146;48.140;16.304;2023-02-23T06:52:28;23.45;;;8.98;;
69854;SDS011;57146;48.140;16.304;2023-02-23T06:54:55;27.30;;;9.88;;
69854;SDS011;57146;48.140;16.304;2023-02-23T06:57:22;24.47;;;9.93;;
69854;SDS011;57146;48.140;16.304;2023-02-23T06:59:49;24.15;;;9.48;;
69854;SDS011;57146;48.140;16.304;2023-02-23T07:02:16;24.23;;;10.43;;
69854;SDS011;57146;48.140;16.304;2023-02-23T07:04:43;24.85;;;9.80;;
69854;SDS011;57146;48.140;16.304;2023-02-23T07:07:10;25.90;;;9.80;;
69854;SDS011;57146;48.140;16.304;2023-02-23T07:09:40;24.37;;;10.10;;
69854;SDS011;57146;48.140;16.304;2023-02-23T07:12:33;24.75;;;9.85;;
69854;SDS011;57146;48.140;16.304;2023-02-23T07:15:00;24.30;;;10.02;;
69854;SDS011;57146;48.140;16.304;2023-02-23T07:17:52;28.02;;;10.07;;
69854;SDS011;57146;48.140;16.304;2023-02-23T07:20:20;25.83;;;10.02;;
69854;SDS011;57146;48.140;16.304;2023-02-23T07:22:47;25.50;;;10.40;;
69854;SDS011;57146;48.140;16.304;2023-02-23T07:25:15;23.02;;;10.23;;
69854;SDS011;57146;48.140;16.304;2023-02-23T07:27:42;22.20;;;9.82;;
69854;SDS011;57146;48.140;16.304;2023-02-23T07:30:09;24.92;;;10.25;;
69854;SDS011;57146;48.140;16.304;2023-02-23T07:32:39;23.75;;;10.10;;
69854;SDS011;57146;48.140;16.304;2023-02-23T07:35:07;25.73;;;10.50;;
69854;SDS011;57146;48.140;16.304;2023-02-23T07:37:34;26.30;;;10.50;;
69854;SDS011;57146;48.140;16.304;2023-02-23T07:40:03;25.55;;;10.43;;
69854;SDS011;57146;48.140;16.304;2023-02-23T07:42:30;24.88;;;9.77;;
69854;SDS011;57146;48.140;16.304;2023-02-23T07:45:03;28.58;;;10.50;;
69854;SDS011;57146;48.140;16.304;2023-02-23T07:47:30;22.83;;;10.40;;
69854;SDS011;57146;48.140;16.304;2023-02-23T07:50:01;27.95;;;10.73;;
69854;SDS011;57146;48.140;16.304;2023-02-23T07:52:29;27.42;;;10.70;;
69854;SDS011;57146;48.140;16.304;2023-02-23T07:54:56;23.80;;;10.55;;
69854;SDS011;57146;48.140;16.304;2023-02-23T07:57:23;23.80;;;9.95;;
69854;SDS011;57146;48.140;16.304;2023-02-23T07:59:50;25.73;;;10.30;;
69854;SDS011;57146;48.140;16.304;2023-02-23T08:02:17;22.95;;;9.52;;
69854;SDS011;57146;48.140;16.304;2023-02-23T08:04:48;23.42;;;9.68;;
69854;SDS011;57146;48.140;16.304;2023-02-23T08:07:19;23.13;;;9.65;;
69854;SDS011;57146;48.140;16.304;2023-02-23T08:09:47;22.98;;;9.70;;
69854;SDS011;57146;48.140;16.304;2023-02-23T08:12:15;22.70;;;9.60;;
69854;SDS011;57146;48.140;16.304;2023-02-23T08:14:42;24.00;;;9.60;;
69854;SDS011;57146;48.140;16.304;2023-02-23T08:17:10;24.90;;;9.18;;
69854;SDS011;57146;48.140;16.304;2023-02-23T08:19:37;28.05;;;9.05;;
69854;SDS011;57146;48.140;16.304;2023-02-23T08:22:04;21.20;;;8.25;;
69854;SDS011;57146;48.140;16.304;2023-02-23T08:25:00;20.60;;;8.30;;
69854;SDS011;57146;48.140;16.304;2023-02-23T08:27:27;23.67;;;8.60;;
69854;SDS011;57146;48.140;16.304;2023-02-23T08:30:19;19.50;;;8.07;;
69854;SDS011;57146;48.140;16.304;2023-02-23T08:32:47;19.17;;;8.27;;
69854;SDS011;57146;48.140;16.304;2023-02-23T08:35:15;21.33;;;8.23;;
69854;SDS011;57146;48.140;16.304;2023-02-23T08:37:43;21.50;;;9.33;;
69854;SDS011;57146;48.140;16.304;2023-02-23T08:40:10;20.08;;;8.55;;
69854;SDS011;57146;48.140;16.304;2023-02-23T08:42:38;19.83;;;8.25;;
69854;SDS011;57146;48.140;16.304;2023-02-23T08:45:05;23.55;;;9.18;;
69854;SDS011;57146;48.140;16.304;2023-02-23T08:47:36;20.35;;;8.82;;
69854;SDS011;57146;48.140;16.304;2023-02-23T08:50:03;20.97;;;8.83;;
69854;SDS011;57146;48.140;16.304;2023-02-23T08:52:31;24.00;;;9.40;;
69854;SDS011;57146;48.140;16.304;2023-02-23T08:54:58;22.77;;;9.10;;
69854;SDS011;57146;48.140;16.304;2023-02-23T08:57:27;20.27;;;8.45;;
69854;SDS011;57146;48.140;16.304;2023-02-23T08:59:54;22.05;;;9.10;;
69854;SDS011;57146;48.140;16.304;2023-02-23T09:02:21;20.77;;;8.53;;
69854;SDS011;57146;48.140;16.304;2023-02-23T09:04:48;22.05;;;8.50;;
69854;SDS011;57146;48.140;16.304;2023-02-23T09:07:19;19.75;;;8.57;;
69854;SDS011;57146;48.140;16.304;2023-02-23T09:09:57;22.58;;;8.93;;
69854;SDS011;57146;48.140;16.304;2023-02-23T09:12:24;18.92;;;8.50;;
69854;SDS011;57146;48.140;16.304;2023-02-23T09:14:51;23.30;;;9.20;;
69854;SDS011;57146;48.140;16.304;2023-02-23T09:17:19;22.33;;;8.88;;
69854;SDS011;57146;48.140;16.304;2023-02-23T09:19:47;21.23;;;9.02;;
69854;SDS011;57146;48.140;16.304;2023-02-23T09:22:39;20.42;;;8.60;;
69854;SDS011;57146;48.140;16.304;2023-02-23T09:25:08;22.33;;;9.95;;
69854;SDS011;57146;48.140;16.304;2023-02-23T09:27:36;21.30;;;9.10;;
69854;SDS011;57146;48.140;16.304;2023-02-23T09:30:03;19.17;;;8.63;;
69854;SDS011;57146;48.140;16.304;2023-02-23T09:32:32;20.42;;;8.55;;
69854;SDS011;57146;48.140;16.304;2023-02-23T09:34:59;19.60;;;8.23;;
69854;SDS011;57146;48.140;16.304;2023-02-23T09:37:26;22.92;;;9.50;;
69854;SDS011;57146;48.140;16.304;2023-02-23T09:39:53;23.73;;;8.80;;
69854;SDS011;57146;48.140;16.304;2023-02-23T09:42:29;22.63;;;9.45;;
69854;SDS011;57146;48.140;16.304;2023-02-23T09:45:25;21.00;;;9.45;;
69854;SDS011;57146;48.140;16.304;2023-02-23T09:48:13;25.20;;;10.65;;
69854;SDS011;57146;48.140;16.304;2023-02-23T09:50:48;21.73;;;9.55;;
69854;SDS011;57146;48.140;16.304;2023-02-23T09:55:54;21.45;;;9.40;;
69854;SDS011;57146;48.140;16.304;2023-02-23T09:58:48;22.90;;;9.93;;
69854;SDS011;57146;48.140;16.304;2023-02-23T10:01:46;21.70;;;9.98;;
69854;SDS011;57146;48.140;16.304;2023-02-23T10:04:21;23.05;;;9.55;;
69854;SDS011;57146;48.140;16.304;2023-02-23T10:07:03;24.27;;;9.80;;
69854;SDS011;57146;48.140;16.304;2023-02-23T10:09:46;22.25;;;9.88;;
69854;SDS011;57146;48.140;16.304;2023-02-23T10:15:01;22.90;;;9.40;;
69854;SDS011;57146;48.140;16.304;2023-02-23T10:20:26;23.03;;;9.63;;
69854;SDS011;57146;48.140;16.304;2023-02-23T10:23:05;22.92;;;9.60;;
69854;SDS011;57146;48.140;16.304;2023-02-23T10:25:37;21.67;;;9.15;;
69854;SDS011;57146;48.140;16.304;2023-02-23T10:28:11;21.33;;;9.73;;
69854;SDS011;57146;48.140;16.304;2023-02-23T10:30:47;21.88;;;9.07;;
69854;SDS011;57146;48.140;16.304;2023-02-23T10:33:53;23.93;;;10.03;;
69854;SDS011;57146;48.140;16.304;2023-02-23T10:36:16;22.40;;;9.77;;
69854;SDS011;57146;48.140;16.304;2023-02-23T10:38:44;22.65;;;9.85;;
69854;SDS011;57146;48.140;16.304;2023-02-23T10:41:12;23.55;;;9.38;;
69854;SDS011;57146;48.140;16.304;2023-02-23T10:43:44;21.88;;;9.48;;
69854;SDS011;57146;48.140;16.304;2023-02-23T10:46:20;21.63;;;9.97;;
69854;SDS011;57146;48.140;16.304;2023-02-23T10:49:17;20.45;;;9.40;;
69854;SDS011;57146;48.140;16.304;2023-02-23T10:51:48;21.20;;;9.68;;
69854;SDS011;57146;48.140;16.304;2023-02-23T10:57:03;22.52;;;10.10;;
69854;SDS011;57146;48.140;16.304;2023-02-23T10:59:36;20.77;;;9.70;;
69854;SDS011;57146;48.140;16.304;2023-02-23T11:02:14;24.52;;;10.60;;
69854;SDS011;57146;48.140;16.304;2023-02-23T11:04:54;21.75;;;10.15;;
69854;SDS011;57146;48.140;16.304;2023-02-23T11:07:29;25.27;;;10.30;;
69854;SDS011;57146;48.140;16.304;2023-02-23T11:12:51;26.30;;;11.03;;
69854;SDS011;57146;48.140;16.304;2023-02-23T11:15:43;27.20;;;11.05;;
69854;SDS011;57146;48.140;16.304;2023-02-23T11:18:23;23.83;;;10.55;;
69854;SDS011;57146;48.140;16.304;2023-02-23T11:20:51;25.42;;;11.45;;
69854;SDS011;57146;48.140;16.304;2023-02-23T11:23:24;27.50;;;11.40;;
69854;SDS011;57146;48.140;16.304;2023-02-23T11:25:56;27.83;;;10.97;;
69854;SDS011;57146;48.140;16.304;2023-02-23T11:28:51;26.70;;;11.77;;
69854;SDS011;57146;48.140;16.304;2023-02-23T11:31:48;26.00;;;11.18;;
69854;SDS011;57146;48.140;16.304;2023-02-23T11:34:19;28.38;;;11.13;;
69854;SDS011;57146;48.140;16.304;2023-02-23T11:37:03;25.90;;;11.13;;
69854;SDS011;57146;48.140;16.304;2023-02-23T11:39:34;24.20;;;10.93;;
69854;SDS011;57146;48.140;16.304;2023-02-23T11:42:12;25.33;;;10.98;;
69854;SDS011;57146;48.140;16.304;2023-02-23T11:45:02;25.58;;;11.30;;
69854;SDS011;57146;48.140;16.304;2023-02-23T11:47:44;23.88;;;10.50;;
69854;SDS011;57146;48.140;16.304;2023-02-23T11:50:29;24.40;;;10.93;;
69854;SDS011;57146;48.140;16.304;2023-02-23T11:53:04;26.23;;;11.27;;
69854;SDS011;57146;48.140;16.304;2023-02-23T11:55:47;25.45;;;11.45;;
69854;SDS011;57146;48.140;16.304;2023-02-23T11:58:21;26.10;;;11.50;;
69854;SDS011;57146;48.140;16.304;2023-02-23T12:00:56;24.58;;;11.10;;
69854;SDS011;57146;48.140;16.304;2023-02-23T12:03:30;26.42;;;11.73;;
69854;SDS011;57146;48.140;16.304;2023-02-23T12:06:01;27.70;;;11.47;;
69854;SDS011;57146;48.140;16.304;2023-02-23T12:11:01;26.25;;;11.23;;
69854;SDS011;57146;48.140;16.304;2023-02-23T12:13:45;24.17;;;10.82;;
69854;SDS011;57146;48.140;16.304;2023-02-23T12:16:45;25.73;;;11.05;;
69854;SDS011;57146;48.140;16.304;2023-02-23T12:19:23;27.73;;;12.03;;
69854;SDS011;57146;48.140;16.304;2023-02-23T12:21:57;24.70;;;10.57;;
69854;SDS011;57146;48.140;16.304;2023-02-23T12:27:26;24.02;;;10.73;;
69854;SDS011;57146;48.140;16.304;2023-02-23T12:33:20;24.13;;;10.77;;
69854;SDS011;57146;48.140;16.304;2023-02-23T12:41:30;24.42;;;10.82;;
69854;SDS011;57146;48.140;16.304;2023-02-23T12:44:13;24.05;;;10.27;;
69854;SDS011;57146;48.140;16.304;2023-02-23T12:47:06;23.00;;;10.57;;
69854;SDS011;57146;48.140;16.304;2023-02-23T12:49:48;24.23;;;10.50;;
69854;SDS011;57146;48.140;16.304;2023-02-23T12:52:31;23.27;;;10.38;;
69854;SDS011;57146;48.140;16.304;2023-02-23T12:55:03;26.38;;;11.20;;
69854;SDS011;57146;48.140;16.304;2023-02-23T12:58:01;22.45;;;9.90;;
69854;SDS011;57146;48.140;16.304;2023-02-23T13:11:21;24.88;;;10.88;;
69854;SDS011;57146;48.140;16.304;2023-02-23T13:13:38;27.02;;;10.68;;
69854;SDS011;57146;48.140;16.304;2023-02-23T13:16:24;24.60;;;10.53;;
69854;SDS011;57146;48.140;16.304;2023-02-23T13:22:04;25.35;;;10.73;;
69854;SDS011;57146;48.140;16.304;2023-02-23T13:24:54;26.13;;;9.68;;
69854;SDS011;57146;48.140;16.304;2023-02-23T13:27:26;24.98;;;10.32;;
69854;SDS011;57146;48.140;16.304;2023-02-23T13:30:09;23.20;;;10.43;;
69854;SDS011;57146;48.140;16.304;2023-02-23T13:32:37;22.75;;;10.27;;
69854;SDS011;57146;48.140;16.304;2023-02-23T13:35:05;21.88;;;10.38;;
69854;SDS011;57146;48.140;16.304;2023-02-23T13:37:44;25.05;;;10.23;;
69854;SDS011;57146;48.140;16.304;2023-02-23T13:48:57;22.65;;;9.95;;
69854;SDS011;57146;48.140;16.304;2023-02-23T13:51:38;26.05;;;10.20;;
69854;SDS011;57146;48.140;16.304;2023-02-23T13:56:49;21.93;;;10.07;;
69854;SDS011;57146;48.140;16.304;2023-02-23T13:59:19;21.52;;;9.73;;
69854;SDS011;57146;48.140;16.304;2023-02-23T14:01:49;23.73;;;10.13;;
69854;SDS011;57146;48.140;16.304;2023-02-23T14:04:26;22.77;;;10.32;;
69854;SDS011;57146;48.140;16.304;2023-02-23T14:07:02;23.73;;;10.60;;
69854;SDS011;57146;48.140;16.304;2023-02-23T14:09:42;24.67;;;10.20;;
69854;SDS011;57146;48.140;16.304;2023-02-23T14:12:16;25.77;;;10.50;;
69854;SDS011;57146;48.140;16.304;2023-02-23T14:14:50;22.63;;;10.20;;
69854;SDS011;57146;48.140;16.304;2023-02-23T14:25:49;21.02;;;8.85;;
69854;SDS011;57146;48.140;16.304;2023-02-23T14:41:52;19.90;;;9.00;;
69854;SDS011;57146;48.140;16.304;2023-02-23T14:44:29;21.88;;;8.57;;
69854;SDS011;57146;48.140;16.304;2023-02-23T14:47:02;19.48;;;8.75;;
69854;SDS011;57146;48.140;16.304;2023-02-23T14:49:35;22.17;;;9.57;;
69854;SDS011;57146;48.140;16.304;2023-02-23T14:52:05;21.52;;;9.38;;
69854;SDS011;57146;48.140;16.304;2023-02-23T14:54:35;20.98;;;9.23;;
69854;SDS011;57146;48.140;16.304;2023-02-23T14:57:05;22.33;;;9.40;;
69854;SDS011;57146;48.140;16.304;2023-02-23T15:02:37;21.17;;;8.83;;
69854;SDS011;57146;48.140;16.304;2023-02-23T15:05:20;21.45;;;9.13;;
69854;SDS011;57146;48.140;16.304;2023-02-23T15:07:50;19.00;;;7.82;;
69854;SDS011;57146;48.140;16.304;2023-02-23T15:10:27;19.60;;;8.55;;
69854;SDS011;57146;48.140;16.304;2023-02-23T15:15:47;21.37;;;8.90;;
69854;SDS011;57146;48.140;16.304;2023-02-23T15:21:41;18.88;;;7.93;;
69854;SDS011;57146;48.140;16.304;2023-02-23T15:24:09;18.70;;;7.90;;
69854;SDS011;57146;48.140;16.304;2023-02-23T15:26:40;19.38;;;8.45;;
69854;SDS011;57146;48.140;16.304;2023-02-23T15:29:11;17.10;;;7.87;;
69854;SDS011;57146;48.140;16.304;2023-02-23T15:31:47;18.50;;;8.40;;
69854;SDS011;57146;48.140;16.304;2023-02-23T15:34:20;19.10;;;8.63;;
69854;SDS011;57146;48.140;16.304;2023-02-23T15:37:19;18.42;;;7.57;;
69854;SDS011;57146;48.140;16.304;2023-02-23T15:40:15;18.40;;;8.00;;
69854;SDS011;57146;48.140;16.304;2023-02-23T15:42:48;19.83;;;8.47;;
69854;SDS011;57146;48.140;16.304;2023-02-23T15:48:04;18.25;;;8.25;;
69854;SDS011;57146;48.140;16.304;2023-02-23T15:50:40;19.25;;;8.52;;
69854;SDS011;57146;48.140;16.304;2023-02-23T15:53:37;19.08;;;8.20;;
69854;SDS011;57146;48.140;16.304;2023-02-23T15:56:14;19.13;;;8.50;;
69854;SDS011;57146;48.140;16.304;2023-02-23T15:58:49;20.70;;;8.48;;
69854;SDS011;57146;48.140;16.304;2023-02-23T16:01:24;21.30;;;8.55;;
69854;SDS011;57146;48.140;16.304;2023-02-23T16:04:12;20.10;;;8.23;;
69854;SDS011;57146;48.140;16.304;2023-02-23T16:06:53;19.95;;;8.48;;
69854;SDS011;57146;48.140;16.304;2023-02-23T16:09:31;20.60;;;8.40;;
69854;SDS011;57146;48.140;16.304;2023-02-23T16:12:23;17.55;;;8.05;;
69854;SDS011;57146;48.140;16.304;2023-02-23T16:14:58;19.13;;;8.52;;
69854;SDS011;57146;48.140;16.304;2023-02-23T16:17:44;19.60;;;8.60;;
69854;SDS011;57146;48.140;16.304;2023-02-23T16:20:44;21.42;;;8.38;;
69854;SDS011;57146;48.140;16.304;2023-02-23T16:23:34;19.77;;;8.60;;
69854;SDS011;57146;48.140;16.304;2023-02-23T16:26:08;24.13;;;9.18;;
69854;SDS011;57146;48.140;16.304;2023-02-23T16:28:44;17.63;;;8.60;;
69854;SDS011;57146;48.140;16.304;2023-02-23T16:31:21;20.17;;;8.98;;
69854;SDS011;57146;48.140;16.304;2023-02-23T16:33:52;20.58;;;8.63;;
69854;SDS011;57146;48.140;16.304;2023-02-23T16:36:54;20.07;;;8.97;;
69854;SDS011;57146;48.140;16.304;2023-02-23T16:39:27;20.90;;;9.80;;
69854;SDS011;57146;48.140;16.304;2023-02-23T16:41:58;23.13;;;10.05;;
69854;SDS011;57146;48.140;16.304;2023-02-23T16:44:26;20.83;;;9.05;;
69854;SDS011;57146;48.140;16.304;2023-02-23T16:47:32;20.55;;;9.20;;
69854;SDS011;57146;48.140;16.304;2023-02-23T16:50:18;22.30;;;9.70;;
69854;SDS011;57146;48.140;16.304;2023-02-23T16:52:48;21.58;;;9.77;;
69854;SDS011;57146;48.140;16.304;2023-02-23T16:55:20;21.33;;;9.07;;
69854;SDS011;57146;48.140;16.304;2023-02-23T16:57:49;20.13;;;9.55;;
69854;SDS011;57146;48.140;16.304;2023-02-23T17:00:23;20.42;;;9.07;;
69854;SDS011;57146;48.140;16.304;2023-02-23T17:02:55;22.93;;;9.53;;
69854;SDS011;57146;48.140;16.304;2023-02-23T17:05:26;19.15;;;8.40;;
69854;SDS011;57146;48.140;16.304;2023-02-23T17:07:54;22.00;;;9.35;;
69854;SDS011;57146;48.140;16.304;2023-02-23T17:10:50;20.75;;;8.68;;
69854;SDS011;57146;48.140;16.304;2023-02-23T17:13:25;22.02;;;9.00;;